Time,TemperatureF,DewpointF,PressureIn,WindDirection,WindDirectionDegrees,WindSpeedMPH,WindSpeedGustMPH,Humidity,HourlyPrecipIn,Conditions,Clouds,dailyrainin,SolarRadiationWatts/m^2,SoftwareType,DateUTC
2013-04-30 00:03:00,71.0,62.0,-100.00,ESE,107,4.0,8.0,73,0.00,,,0.00,0.000000,,2013-04-30 10:03:00,
2013-04-30 00:11:00,71.0,62.0,-100.00,ESE,107,4.0,8.0,73,0.00,,,0.00,0.000000,,2013-04-30 10:11:00,
2013-04-30 00:22:00,71.0,62.0,-100.00,ESE,107,4.0,8.0,73,0.00,,,0.00,0.000000,,2013-04-30 10:22:00,
2013-04-30 00:32:00,71.0,62.0,-100.00,ESE,107,4.0,8.0,73,0.00,,,0.00,0.000000,,2013-04-30 10:32:00,
2013-04-30 01:01:00,69.0,61.0,-100.00,SE,138,3.0,7.0,76,0.00,,,0.00,0.000000,,2013-04-30 11:01:00,
2013-04-30 01:11:00,69.0,61.0,-100.00,SE,138,3.0,7.0,76,0.00,,,0.00,0.000000,,2013-04-30 11:11:00,
2013-04-30 01:21:00,69.0,61.0,-100.00,SE,138,3.0,7.0,76,0.00,,,0.00,0.000000,,2013-04-30 11:21:00,
2013-04-30 01:31:00,69.0,61.0,-100.00,SE,138,3.0,7.0,76,0.00,,,0.00,0.000000,,2013-04-30 11:31:00,
2013-04-30 02:01:00,70.0,58.0,-100.00,East,100,8.0,12.0,65,0.00,,,0.00,0.000000,,2013-04-30 12:01:00,
2013-04-30 02:11:00,70.0,58.0,-100.00,East,100,8.0,12.0,65,0.00,,,0.00,0.000000,,2013-04-30 12:11:00,
2013-04-30 02:21:00,70.0,58.0,-100.00,East,100,8.0,12.0,65,0.00,,,0.00,0.000000,,2013-04-30 12:21:00,
2013-04-30 02:31:00,70.0,58.0,-100.00,East,100,8.0,12.0,65,0.00,,,0.00,0.000000,,2013-04-30 12:31:00,
2013-04-30 04:02:00,67.0,56.0,-100.00,East,84,7.0,9.0,68,-99.99,,,0.00,0.000000,,2013-04-30 14:02:00,
2013-04-30 04:11:00,67.0,56.0,-100.00,East,84,7.0,9.0,68,-99.99,,,0.00,0.000000,,2013-04-30 14:11:00,
2013-04-30 04:21:00,67.0,56.0,-100.00,East,84,7.0,9.0,68,-99.99,,,0.00,0.000000,,2013-04-30 14:21:00,
2013-04-30 04:31:00,67.0,56.0,-100.00,East,84,7.0,9.0,68,-99.99,,,0.00,0.000000,,2013-04-30 14:31:00,
2013-04-30 05:01:00,65.0,55.0,-100.00,East,84,6.0,10.0,71,0.00,,,0.00,0.000000,,2013-04-30 15:01:00,
2013-04-30 05:11:00,65.0,55.0,-100.00,East,84,6.0,10.0,71,0.00,,,0.00,0.000000,,2013-04-30 15:11:00,
2013-04-30 05:21:00,65.0,55.0,-100.00,East,84,6.0,10.0,71,0.00,,,0.00,0.000000,,2013-04-30 15:21:00,
2013-04-30 05:32:00,65.0,55.0,-100.00,East,84,6.0,10.0,71,0.00,,,0.00,0.000000,,2013-04-30 15:32:00,
2013-04-30 06:02:00,65.0,55.0,-100.00,ESE,106,7.0,10.0,70,0.00,,,0.00,0.000000,,2013-04-30 16:02:00,
2013-04-30 06:12:00,65.0,55.0,-100.00,ESE,106,7.0,10.0,70,0.00,,,0.00,0.000000,,2013-04-30 16:12:00,
2013-04-30 06:22:00,65.0,55.0,-100.00,ESE,106,7.0,10.0,70,0.00,,,0.00,0.000000,,2013-04-30 16:22:00,
2013-04-30 06:32:00,65.0,55.0,-100.00,ESE,106,7.0,10.0,70,0.00,,,0.00,0.000000,,2013-04-30 16:32:00,
2013-04-30 07:02:00,67.0,56.0,-100.00,ESE,119,8.0,11.0,69,0.00,,,0.00,24.000000,,2013-04-30 17:02:00,
2013-04-30 07:12:00,67.0,56.0,-100.00,ESE,119,8.0,11.0,69,0.00,,,0.00,24.000000,,2013-04-30 17:12:00,
2013-04-30 07:22:00,67.0,56.0,-100.00,ESE,119,8.0,11.0,69,0.00,,,0.00,24.000000,,2013-04-30 17:22:00,
2013-04-30 07:32:00,67.0,56.0,-100.00,ESE,119,8.0,11.0,69,0.00,,,0.00,24.000000,,2013-04-30 17:32:00,
2013-04-30 08:01:00,75.0,59.0,-100.00,ENE,67,7.0,11.0,58,0.00,,,0.00,217.000000,,2013-04-30 18:01:00,
2013-04-30 08:11:00,75.0,59.0,-100.00,ENE,67,7.0,11.0,58,0.00,,,0.00,217.000000,,2013-04-30 18:11:00,
2013-04-30 08:22:00,75.0,59.0,-100.00,ENE,67,7.0,11.0,58,0.00,,,0.00,217.000000,,2013-04-30 18:22:00,
2013-04-30 08:32:00,75.0,59.0,-100.00,ENE,67,7.0,11.0,58,0.00,,,0.00,217.000000,,2013-04-30 18:32:00,
2013-04-30 09:01:00,77.0,63.0,-100.00,WNW,298,6.0,10.0,61,0.00,,,0.00,468.000000,,2013-04-30 19:01:00,
2013-04-30 09:11:00,77.0,63.0,-100.00,WNW,298,6.0,10.0,61,0.00,,,0.00,468.000000,,2013-04-30 19:11:00,
2013-04-30 09:21:00,77.0,63.0,-100.00,WNW,298,6.0,10.0,61,0.00,,,0.00,468.000000,,2013-04-30 19:21:00,
2013-04-30 09:31:00,77.0,63.0,-100.00,WNW,298,6.0,10.0,61,0.00,,,0.00,468.000000,,2013-04-30 19:31:00,
2013-04-30 10:02:00,78.0,62.0,-100.00,West,277,10.0,14.0,58,0.00,,,0.00,705.000000,,2013-04-30 20:02:00,
2013-04-30 10:11:00,78.0,62.0,-100.00,West,277,10.0,14.0,58,0.00,,,0.00,705.000000,,2013-04-30 20:11:00,
2013-04-30 10:21:00,78.0,62.0,-100.00,West,277,10.0,14.0,58,0.00,,,0.00,705.000000,,2013-04-30 20:21:00,
2013-04-30 10:32:00,78.0,62.0,-100.00,West,277,10.0,14.0,58,0.00,,,0.00,705.000000,,2013-04-30 20:32:00,
2013-04-30 11:01:00,80.0,65.0,-100.00,West,259,11.0,17.0,60,0.00,,,0.00,910.000000,,2013-04-30 21:01:00,
2013-04-30 11:11:00,80.0,65.0,-100.00,West,259,11.0,17.0,60,0.00,,,0.00,910.000000,,2013-04-30 21:11:00,
2013-04-30 11:22:00,80.0,65.0,-100.00,West,259,11.0,17.0,60,0.00,,,0.00,910.000000,,2013-04-30 21:22:00,
2013-04-30 11:32:00,80.0,65.0,-100.00,West,259,11.0,17.0,60,0.00,,,0.00,910.000000,,2013-04-30 21:32:00,
2013-04-30 12:02:00,80.0,65.0,-100.00,West,275,9.0,18.0,61,0.00,,,0.00,936.000000,,2013-04-30 22:02:00,
2013-04-30 12:12:00,80.0,65.0,-100.00,West,275,9.0,18.0,61,0.00,,,0.00,936.000000,,2013-04-30 22:12:00,
2013-04-30 12:22:00,80.0,65.0,-100.00,West,275,9.0,18.0,61,0.00,,,0.00,936.000000,,2013-04-30 22:22:00,
2013-04-30 12:32:00,80.0,65.0,-100.00,West,275,9.0,18.0,61,0.00,,,0.00,936.000000,,2013-04-30 22:32:00,
2013-04-30 13:02:00,81.0,64.0,-100.00,WNW,284,11.0,19.0,57,0.00,,,0.00,1117.000000,,2013-04-30 23:02:00,
2013-04-30 13:11:00,81.0,64.0,-100.00,WNW,284,11.0,19.0,57,0.00,,,0.00,1117.000000,,2013-04-30 23:11:00,
2013-04-30 13:21:00,81.0,64.0,-100.00,WNW,284,11.0,19.0,57,0.00,,,0.00,1117.000000,,2013-04-30 23:21:00,
2013-04-30 13:32:00,81.0,64.0,-100.00,WNW,284,11.0,19.0,57,0.00,,,0.00,1117.000000,,2013-04-30 23:32:00,
2013-04-30 14:01:00,81.0,63.0,-100.00,West,277,13.0,21.0,55,0.00,,,0.00,1045.000000,,2013-05-01 00:01:00,
2013-04-30 14:11:00,81.0,63.0,-100.00,West,277,13.0,21.0,55,0.00,,,0.00,1045.000000,,2013-05-01 00:11:00,
2013-04-30 14:21:00,81.0,63.0,-100.00,West,277,13.0,21.0,55,0.00,,,0.00,1045.000000,,2013-05-01 00:21:00,
2013-04-30 14:31:00,81.0,63.0,-100.00,West,277,13.0,21.0,55,0.00,,,0.00,1045.000000,,2013-05-01 00:31:00,
2013-04-30 14:52:00,83.0,62.0,-100.00,West,266,13.0,21.0,50,0.00,,,0.00,981.000000,,2013-05-01 00:52:00,
2013-04-30 15:01:00,83.0,62.0,-100.00,West,266,13.0,21.0,50,0.00,,,0.00,981.000000,,2013-05-01 01:01:00,
2013-04-30 15:11:00,83.0,62.0,-100.00,West,266,13.0,21.0,50,0.00,,,0.00,981.000000,,2013-05-01 01:11:00,
2013-04-30 15:21:00,83.0,62.0,-100.00,West,266,13.0,21.0,50,0.00,,,0.00,981.000000,,2013-05-01 01:21:00,
2013-04-30 15:31:00,83.0,62.0,-100.00,West,266,13.0,21.0,50,0.00,,,0.00,981.000000,,2013-05-01 01:31:00,
2013-04-30 16:02:00,83.0,62.0,-100.00,West,266,14.0,24.0,49,0.00,,,0.00,823.000000,,2013-05-01 02:02:00,
2013-04-30 16:11:00,83.0,62.0,-100.00,West,266,14.0,24.0,49,0.00,,,0.00,823.000000,,2013-05-01 02:11:00,
2013-04-30 16:21:00,83.0,62.0,-100.00,West,266,14.0,24.0,49,0.00,,,0.00,823.000000,,2013-05-01 02:21:00,
2013-04-30 16:32:00,83.0,62.0,-100.00,West,266,14.0,24.0,49,0.00,,,0.00,823.000000,,2013-05-01 02:32:00,
2013-04-30 17:01:00,82.0,61.0,-100.00,WSW,258,11.0,20.0,49,0.00,,,0.00,622.000000,,2013-05-01 03:01:00,
2013-04-30 17:11:00,82.0,61.0,-100.00,WSW,258,11.0,20.0,49,0.00,,,0.00,622.000000,,2013-05-01 03:11:00,
2013-04-30 17:21:00,82.0,61.0,-100.00,WSW,258,11.0,20.0,49,0.00,,,0.00,622.000000,,2013-05-01 03:21:00,
2013-04-30 17:32:00,82.0,61.0,-100.00,WSW,258,11.0,20.0,49,0.00,,,0.00,622.000000,,2013-05-01 03:32:00,
2013-04-30 18:03:00,81.0,63.0,-100.00,West,279,9.0,19.0,54,0.00,,,-99.99,423.000000,,2013-05-01 04:03:00,
2013-04-30 18:12:00,81.0,63.0,-100.00,West,279,9.0,19.0,54,0.00,,,-99.99,423.000000,,2013-05-01 04:12:00,
2013-04-30 18:22:00,81.0,63.0,-100.00,West,279,9.0,19.0,54,0.00,,,-99.99,423.000000,,2013-05-01 04:22:00,
2013-04-30 18:32:00,81.0,63.0,-100.00,West,279,9.0,19.0,54,0.00,,,-99.99,423.000000,,2013-05-01 04:32:00,
2013-04-30 19:02:00,78.0,62.0,-100.00,NW,317,4.0,11.0,57,0.00,,,0.00,125.000000,,2013-05-01 05:02:00,
2013-04-30 19:11:00,78.0,62.0,-100.00,NW,317,4.0,11.0,57,0.00,,,0.00,125.000000,,2013-05-01 05:11:00,
2013-04-30 19:21:00,78.0,62.0,-100.00,NW,317,4.0,11.0,57,0.00,,,0.00,125.000000,,2013-05-01 05:21:00,
2013-04-30 19:32:00,78.0,62.0,-100.00,NW,317,4.0,11.0,57,0.00,,,0.00,125.000000,,2013-05-01 05:32:00,
2013-04-30 20:02:00,75.0,62.0,-100.00,ESE,107,8.0,12.0,65,0.00,,,0.00,3.000000,,2013-05-01 06:02:00,
2013-04-30 20:11:00,75.0,62.0,-100.00,ESE,107,8.0,12.0,65,0.00,,,0.00,3.000000,,2013-05-01 06:11:00,
2013-04-30 20:22:00,75.0,62.0,-100.00,ESE,107,8.0,12.0,65,0.00,,,0.00,3.000000,,2013-05-01 06:22:00,
2013-04-30 20:32:00,75.0,62.0,-100.00,ESE,107,8.0,12.0,65,0.00,,,0.00,3.000000,,2013-05-01 06:32:00,
2013-04-30 21:01:00,72.0,60.0,-100.00,East,89,10.0,14.0,66,0.00,,,0.00,0.000000,,2013-05-01 07:01:00,
2013-04-30 21:11:00,72.0,60.0,-100.00,East,89,10.0,14.0,66,0.00,,,0.00,0.000000,,2013-05-01 07:11:00,
2013-04-30 21:21:00,72.0,60.0,-100.00,East,89,10.0,14.0,66,0.00,,,0.00,0.000000,,2013-05-01 07:21:00,
2013-04-30 21:32:00,72.0,60.0,-100.00,East,89,10.0,14.0,66,0.00,,,0.00,0.000000,,2013-05-01 07:32:00,
2013-04-30 22:01:00,70.0,57.0,-100.00,East,90,12.0,15.0,64,0.00,,,0.00,0.000000,,2013-05-01 08:01:00,
2013-04-30 22:11:00,70.0,57.0,-100.00,East,90,12.0,15.0,64,0.00,,,0.00,0.000000,,2013-05-01 08:11:00,
2013-04-30 22:21:00,70.0,57.0,-100.00,East,90,12.0,15.0,64,0.00,,,0.00,0.000000,,2013-05-01 08:21:00,
2013-04-30 22:31:00,70.0,57.0,-100.00,East,90,12.0,15.0,64,0.00,,,0.00,0.000000,,2013-05-01 08:31:00,
2013-04-30 23:01:00,71.0,60.0,-100.00,ENE,73,13.0,19.0,68,0.00,,,0.00,0.000000,,2013-05-01 09:01:00,
2013-04-30 23:11:00,71.0,60.0,-100.00,ENE,73,13.0,19.0,68,0.00,,,0.00,0.000000,,2013-05-01 09:11:00,
2013-04-30 23:21:00,71.0,60.0,-100.00,ENE,73,13.0,19.0,68,0.00,,,0.00,0.000000,,2013-05-01 09:21:00,
2013-04-30 23:33:00,71.0,60.0,-100.00,ENE,73,13.0,19.0,68,0.00,,,0.00,0.000000,,2013-05-01 09:33:00,